Carriage Hill, Washington
Current Conditions -  °F | °C
As of 5:35 AM on Wednesday 22 Oct 2014 (Local Time) from KCLS Reporting Station
Light Rain Light Rain  
Wind Chill: 55°   Ceiling: NA
Heat Index: 55°   Visibility: 9mi
Dew Point: 54°   Wind: 13mph
Humidity: 94%   Direction: 190°S
Pressure: 29.69"   Gusts: 22mph
Location:  46.5485°N, 122.112°W
Report Text: KCLS 221235Z AUTO 19011G19KT 9SM -RA 13/12 A2969 RMK AO2
Loading
Personal Weather Stations






























Interactive Weather Map New forecast layout! Learn more

10-Day Weather Forecast

Advertisements
Track Severe Weather on mobile